Spartanburg, South Carolina
Current Conditions -  °F | °C
As of 3:15 PM on Friday 21 Nov 2014 (Local Time) from KSPA Reporting Station
Clear Clear  
Wind Chill: 63°   Ceiling: Unl
Heat Index: 63°   Visibility: 10mi
Dew Point: 10°   Wind: 8mph
Humidity: 13%   Direction: 350°N
Pressure: 30.36"   Gusts: NA
Location:  34.95°N, 81.93°W
Report Text: KSPA 212015Z AUTO 35007KT 10SM CLR 17/M12 A3036 RMK AO2
Loading
Personal Weather Stations






























Interactive Weather Map New forecast layout! Learn more

10-Day Weather Forecast

Advertisements
Track Severe Weather on mobile